createdAt,value
2023-04-16T00:01:36.462Z,13.41
2023-04-16T00:04:03.839Z,13.36
2023-04-16T00:06:31.921Z,13.95
2023-04-16T00:08:58.779Z,14.24
2023-04-16T00:11:25.633Z,14.67
2023-04-16T00:13:52.483Z,14.95
2023-04-16T00:16:19.363Z,14.69
2023-04-16T00:18:46.777Z,14.38
2023-04-16T00:21:13.699Z,14.76
2023-04-16T00:23:40.541Z,14.96
2023-04-16T00:26:08.821Z,15.03
2023-04-16T00:28:35.995Z,14.94
2023-04-16T00:31:03.052Z,15.13
2023-04-16T00:33:30.397Z,15.23
2023-04-16T00:35:57.306Z,15.43
2023-04-16T00:38:24.233Z,15.58
2023-04-16T00:40:51.358Z,15.59
2023-04-16T00:43:25.888Z,15.69
2023-04-16T00:45:53.626Z,15.63
2023-04-16T00:48:21.148Z,14.97
2023-04-16T00:50:48.592Z,14.47
2023-04-16T00:53:16.289Z,14.33
2023-04-16T00:55:43.866Z,14.35
2023-04-16T00:58:10.901Z,14.37
2023-04-16T01:00:37.872Z,14.77
2023-04-16T01:03:05.333Z,14.94
2023-04-16T01:05:32.309Z,15.52
2023-04-16T01:08:00.936Z,15.78
2023-04-16T01:10:27.858Z,15.88
2023-04-16T01:12:54.754Z,15.91
2023-04-16T01:15:21.853Z,15.55
2023-04-16T01:17:48.968Z,15.31
2023-04-16T01:20:16.209Z,15.12
2023-04-16T01:22:43.153Z,14.87
2023-04-16T01:25:13.831Z,15.02
2023-04-16T01:27:40.857Z,14.87
2023-04-16T01:30:08.000Z,15.22
2023-04-16T01:32:46.022Z,15.59
2023-04-16T01:35:12.909Z,15.68
2023-04-16T01:37:39.782Z,15.11
2023-04-16T01:40:07.054Z,14.74
2023-04-16T01:42:33.973Z,14.69
2023-04-16T01:45:00.798Z,14.34
2023-04-16T01:47:27.983Z,14.53
2023-04-16T01:49:55.216Z,14.88
2023-04-16T01:52:22.121Z,14.45
2023-04-16T01:54:48.961Z,14.63
2023-04-16T01:57:15.887Z,15.12
2023-04-16T01:59:42.792Z,15.03
2023-04-16T02:02:14.720Z,14.92
2023-04-16T02:04:45.200Z,14.66
2023-04-16T02:07:12.461Z,14.41
2023-04-16T02:09:40.413Z,14.70
2023-04-16T02:12:07.784Z,14.28
2023-04-16T02:14:34.820Z,14.34
2023-04-16T02:17:02.298Z,14.11
2023-04-16T02:19:42.806Z,13.98
2023-04-16T02:22:10.651Z,13.86
2023-04-16T02:24:37.589Z,13.95
2023-04-16T02:27:08.361Z,13.95
2023-04-16T02:29:35.417Z,13.78
2023-04-16T02:32:10.323Z,13.44
2023-04-16T02:34:40.098Z,12.98
2023-04-16T02:37:07.374Z,12.66
2023-04-16T02:39:34.322Z,12.95
2023-04-16T02:42:02.637Z,13.49
2023-04-16T02:44:29.854Z,14.00
2023-04-16T02:46:56.737Z,14.18
2023-04-16T02:49:23.745Z,14.34
2023-04-16T02:51:50.650Z,14.54
2023-04-16T02:54:17.590Z,14.66
2023-04-16T02:56:44.493Z,14.75
2023-04-16T02:59:11.520Z,14.91
2023-04-16T03:01:38.630Z,14.92
2023-04-16T03:04:05.785Z,14.65
2023-04-16T03:06:32.797Z,14.85
2023-04-16T03:08:59.690Z,14.46
2023-04-16T03:11:26.677Z,14.25
2023-04-16T03:13:53.987Z,13.73
2023-04-16T03:16:20.982Z,13.45
2023-04-16T03:18:47.890Z,13.67
2023-04-16T03:21:17.259Z,14.26
2023-04-16T03:23:44.260Z,14.91
2023-04-16T03:26:11.161Z,14.45
2023-04-16T03:28:38.112Z,13.61
2023-04-16T03:31:05.238Z,13.11
2023-04-16T03:33:32.187Z,13.21
2023-04-16T03:35:59.371Z,13.15
2023-04-16T03:38:29.858Z,13.32
2023-04-16T03:40:58.914Z,13.52
2023-04-16T03:43:26.785Z,14.09
2023-04-16T03:45:53.646Z,14.11
2023-04-16T03:48:23.396Z,14.34
2023-04-16T03:50:50.484Z,14.37
2023-04-16T03:53:19.537Z,14.53
2023-04-16T03:55:50.911Z,14.65
2023-04-16T03:58:18.394Z,14.88
2023-04-16T04:00:46.935Z,14.77
2023-04-16T04:03:18.745Z,15.01
2023-04-16T04:05:48.419Z,14.84
2023-04-16T04:08:19.800Z,14.29
2023-04-16T04:10:46.720Z,14.57
2023-04-16T04:13:14.766Z,14.53
2023-04-16T04:15:42.311Z,14.63
2023-04-16T04:18:09.247Z,14.63
2023-04-16T04:20:39.449Z,14.53
2023-04-16T04:23:06.311Z,14.84
2023-04-16T04:25:33.362Z,15.24
2023-04-16T04:28:00.448Z,15.47
2023-04-16T04:30:28.774Z,15.87
2023-04-16T04:32:56.242Z,15.81
2023-04-16T04:35:23.139Z,15.55
2023-04-16T04:37:50.673Z,15.21
2023-04-16T04:40:20.229Z,15.09
2023-04-16T04:42:48.013Z,15.73
2023-04-16T04:45:15.787Z,15.66
2023-04-16T04:47:42.767Z,15.85
2023-04-16T04:50:10.936Z,15.64
2023-04-16T04:52:38.224Z,15.57
2023-04-16T04:55:06.537Z,15.75
2023-04-16T04:57:33.492Z,15.51
2023-04-16T05:00:04.447Z,15.06
2023-04-16T05:02:39.728Z,15.44
2023-04-16T05:05:07.259Z,15.40
2023-04-16T05:07:34.190Z,15.87
2023-04-16T05:10:01.245Z,15.61
2023-04-16T05:12:28.136Z,15.82
2023-04-16T05:14:55.061Z,15.59
2023-04-16T05:17:22.071Z,15.65
2023-04-16T05:19:48.970Z,15.82
2023-04-16T05:22:19.051Z,15.96
2023-04-16T05:24:46.266Z,16.30
2023-04-16T05:27:13.241Z,16.23
2023-04-16T05:29:40.073Z,15.79
2023-04-16T05:32:07.009Z,15.97
2023-04-16T05:34:33.972Z,16.04
2023-04-16T05:37:01.405Z,16.26
2023-04-16T05:39:28.245Z,16.45
2023-04-16T05:41:55.096Z,16.92
2023-04-16T05:44:22.147Z,17.07
2023-04-16T05:46:49.021Z,17.82
2023-04-16T05:49:18.821Z,18.44
2023-04-16T05:51:45.808Z,19.06
2023-04-16T05:54:12.693Z,18.66
2023-04-16T05:56:39.537Z,18.93
2023-04-16T05:59:06.430Z,19.48
2023-04-16T06:01:34.396Z,19.79
2023-04-16T06:04:01.544Z,20.12
2023-04-16T06:06:28.544Z,19.85
2023-04-16T06:08:55.385Z,19.63
2023-04-16T06:11:22.356Z,19.95
2023-04-16T06:13:49.335Z,19.92
2023-04-16T06:16:16.215Z,19.46
2023-04-16T06:18:43.100Z,19.35
2023-04-16T06:21:10.461Z,19.23
2023-04-16T06:23:37.290Z,18.82
2023-04-16T06:26:04.714Z,19.25
2023-04-16T06:28:31.582Z,19.14
2023-04-16T06:30:58.646Z,19.18
2023-04-16T06:33:25.594Z,19.41
2023-04-16T06:35:52.512Z,19.43
2023-04-16T06:38:19.384Z,19.41
2023-04-16T06:40:46.232Z,19.26
2023-04-16T06:43:13.196Z,19.30
2023-04-16T06:45:40.076Z,18.57
2023-04-16T06:48:07.091Z,18.85
2023-04-16T06:50:34.162Z,18.75
2023-04-16T06:53:01.104Z,19.04
2023-04-16T06:55:28.006Z,19.44
2023-04-16T06:57:54.921Z,19.86
2023-04-16T07:00:21.819Z,20.13
2023-04-16T07:02:48.799Z,19.88
2023-04-16T07:05:15.772Z,19.47
2023-04-16T07:07:42.766Z,19.92
2023-04-16T07:10:09.939Z,20.13
2023-04-16T07:12:36.900Z,19.50
2023-04-16T07:15:03.915Z,18.85
2023-04-16T07:17:30.805Z,17.53
2023-04-16T07:19:57.724Z,16.91
2023-04-16T07:22:24.588Z,16.82
2023-04-16T07:24:51.441Z,16.59
2023-04-16T07:27:18.326Z,16.86
2023-04-16T07:29:46.111Z,17.14
2023-04-16T07:32:15.321Z,17.11
2023-04-16T07:34:42.544Z,16.72
2023-04-16T07:37:09.418Z,17.16
2023-04-16T07:39:36.364Z,17.07
2023-04-16T07:42:03.338Z,16.98
2023-04-16T07:44:30.240Z,17.72
2023-04-16T07:46:57.304Z,17.74
2023-04-16T07:49:24.250Z,17.85
2023-04-16T07:51:51.122Z,17.72
2023-04-16T07:54:17.984Z,17.95
2023-04-16T07:56:44.890Z,18.30
2023-04-16T08:01:41.716Z,18.58
2023-04-16T08:04:08.849Z,18.36
2023-04-16T08:06:35.770Z,18.46
2023-04-16T08:09:02.757Z,18.72
2023-04-16T08:11:29.671Z,18.51
2023-04-16T08:13:56.616Z,18.39
2023-04-16T08:16:23.580Z,18.43
2023-04-16T08:18:50.525Z,18.64
2023-04-16T08:21:17.427Z,18.51
2023-04-16T08:23:44.308Z,18.17
2023-04-16T08:26:11.632Z,18.69
2023-04-16T08:28:38.547Z,18.60
2023-04-16T08:31:05.673Z,18.84
2023-04-16T08:33:32.569Z,18.91
2023-04-16T08:35:59.382Z,18.77
2023-04-16T08:38:26.577Z,18.53
2023-04-16T08:40:54.397Z,18.25
2023-04-16T08:43:22.652Z,18.92
2023-04-16T08:45:49.773Z,19.52
2023-04-16T08:48:16.648Z,20.08
2023-04-16T08:50:44.035Z,21.08
2023-04-16T08:53:17.843Z,20.77
2023-04-16T08:55:47.735Z,21.12
2023-04-16T08:58:15.727Z,21.36
2023-04-16T09:00:43.672Z,21.86
2023-04-16T09:03:11.285Z,21.89
2023-04-16T09:05:38.755Z,22.84
2023-04-16T09:08:06.752Z,22.53
2023-04-16T09:10:33.714Z,22.80
2023-04-16T09:13:00.731Z,22.74
2023-04-16T09:15:27.688Z,22.44
2023-04-16T09:17:56.603Z,23.04
2023-04-16T09:20:23.550Z,23.02
2023-04-16T09:22:50.746Z,22.47
2023-04-16T09:25:17.718Z,22.05
2023-04-16T09:27:44.963Z,22.24
2023-04-16T09:30:27.364Z,23.08
2023-04-16T09:33:16.694Z,22.72
2023-04-16T09:35:47.885Z,21.82
2023-04-16T09:38:14.968Z,21.43
2023-04-16T09:40:41.986Z,21.75
2023-04-16T09:43:15.913Z,21.20
2023-04-16T09:45:50.864Z,20.51
2023-04-16T09:48:30.379Z,20.99
2023-04-16T09:50:57.674Z,20.32
2023-04-16T09:53:28.626Z,19.83
2023-04-16T09:55:59.130Z,20.01
2023-04-16T09:58:26.284Z,19.87
2023-04-16T10:01:02.752Z,19.63
2023-04-16T10:03:31.242Z,18.91
2023-04-16T10:06:16.557Z,18.96
2023-04-16T10:08:53.197Z,18.32
2023-04-16T10:11:20.985Z,17.39
2023-04-16T10:13:47.829Z,17.41
2023-04-16T10:16:14.990Z,17.39
2023-04-16T10:18:42.857Z,17.12
2023-04-16T10:21:13.075Z,17.19
2023-04-16T10:23:40.443Z,17.69
2023-04-16T10:26:07.633Z,17.34
2023-04-16T10:28:35.705Z,17.09
2023-04-16T10:31:04.456Z,16.81
2023-04-16T10:33:35.905Z,17.54
2023-04-16T10:36:09.779Z,17.33
2023-04-16T10:38:38.860Z,18.06
2023-04-16T10:41:06.626Z,17.34
2023-04-16T10:43:34.471Z,17.05
2023-04-16T10:46:20.682Z,16.62
2023-04-16T10:48:50.373Z,16.38
2023-04-16T10:51:29.963Z,15.82
2023-04-16T10:54:23.330Z,15.47
2023-04-16T10:56:50.690Z,15.14
2023-04-16T10:59:21.474Z,15.55
2023-04-16T11:01:50.144Z,15.22
2023-04-16T11:04:20.234Z,15.61
2023-04-16T11:07:05.949Z,16.54
2023-04-16T11:09:51.541Z,16.42
2023-04-16T11:12:19.836Z,16.36
2023-04-16T11:14:50.770Z,17.39
2023-04-16T11:17:18.134Z,17.64
2023-04-16T11:19:45.373Z,17.92
2023-04-16T11:22:13.907Z,18.18
2023-04-16T11:24:41.377Z,17.82
2023-04-16T11:27:08.696Z,18.10
2023-04-16T11:29:35.639Z,17.60
2023-04-16T11:32:02.651Z,18.04
2023-04-16T11:34:29.553Z,18.53
2023-04-16T11:36:56.456Z,19.38
2023-04-16T11:39:23.407Z,19.22
2023-04-16T11:41:52.473Z,18.86
2023-04-16T11:44:23.180Z,18.94
2023-04-16T11:46:51.092Z,18.74
2023-04-16T11:49:27.179Z,18.19
2023-04-16T11:51:55.404Z,18.28
2023-04-16T11:54:23.380Z,18.35
2023-04-16T11:56:51.435Z,18.21
2023-04-16T11:59:25.625Z,17.93
2023-04-16T12:01:53.337Z,17.93
2023-04-16T12:04:21.611Z,17.70
2023-04-16T12:07:07.493Z,17.77
2023-04-16T12:09:37.926Z,17.54
2023-04-16T12:12:07.564Z,17.85
2023-04-16T12:14:34.639Z,17.85
2023-04-16T12:17:16.999Z,18.01
2023-04-16T12:19:51.801Z,17.89
2023-04-16T12:22:26.601Z,18.07
2023-04-16T12:24:57.205Z,18.20
2023-04-16T12:27:26.751Z,18.57
2023-04-16T12:30:06.748Z,18.36
2023-04-16T12:32:33.930Z,17.53
2023-04-16T12:35:01.147Z,16.76
2023-04-16T12:37:28.092Z,16.53
2023-04-16T12:39:55.120Z,17.39
2023-04-16T12:42:22.268Z,18.35
2023-04-16T12:44:49.201Z,18.38
2023-04-16T12:47:16.214Z,19.02
2023-04-16T12:49:44.578Z,18.28
2023-04-16T12:52:11.674Z,18.84
2023-04-16T12:54:38.532Z,18.81
2023-04-16T12:57:05.357Z,18.78
2023-04-16T12:59:32.176Z,19.38
2023-04-16T13:02:01.001Z,20.59
2023-04-16T13:04:28.171Z,20.56
2023-04-16T13:06:55.200Z,21.67
2023-04-16T13:09:22.196Z,21.75
2023-04-16T13:11:49.126Z,21.69
2023-04-16T13:14:16.132Z,22.04
2023-04-16T13:16:43.055Z,22.17
2023-04-16T13:19:10.246Z,20.76
2023-04-16T13:21:37.464Z,21.28
2023-04-16T13:24:04.486Z,21.04
2023-04-16T13:26:31.657Z,20.59
2023-04-16T13:28:58.572Z,20.33
2023-04-16T13:31:26.140Z,19.51
2023-04-16T13:33:53.086Z,18.54
2023-04-16T13:36:19.992Z,18.96
2023-04-16T13:38:46.898Z,19.15
2023-04-16T13:41:13.773Z,18.53
2023-04-16T13:43:40.683Z,18.39
2023-04-16T13:46:07.687Z,17.73
2023-04-16T13:48:34.615Z,16.89
2023-04-16T13:51:02.947Z,17.12
2023-04-16T13:53:29.936Z,17.19
2023-04-16T13:55:56.827Z,17.33
2023-04-16T13:58:23.741Z,16.65
2023-04-16T14:00:50.664Z,16.33
2023-04-16T14:03:17.678Z,16.60
2023-04-16T14:05:44.557Z,16.80
2023-04-16T14:08:13.156Z,16.78
2023-04-16T14:10:40.095Z,16.20
2023-04-16T14:13:06.992Z,16.01
2023-04-16T14:15:33.861Z,15.70
2023-04-16T14:18:01.493Z,15.78
2023-04-16T14:20:28.478Z,15.61
2023-04-16T14:22:55.381Z,15.17
2023-04-16T14:25:22.285Z,15.08
2023-04-16T14:27:49.221Z,15.29
2023-04-16T14:30:16.833Z,15.43
2023-04-16T14:32:43.730Z,15.75
2023-04-16T14:35:10.644Z,15.53
2023-04-16T14:37:38.534Z,15.66
2023-04-16T14:40:08.348Z,15.24
2023-04-16T14:42:36.781Z,15.14
2023-04-16T14:45:06.578Z,14.58
2023-04-16T14:47:34.480Z,13.95
2023-04-16T14:50:01.769Z,13.78
2023-04-16T14:52:28.865Z,14.05
2023-04-16T14:54:55.961Z,14.36
2023-04-16T14:57:22.962Z,14.55
2023-04-16T14:59:50.676Z,14.73
2023-04-16T15:02:17.852Z,15.07
2023-04-16T15:04:44.767Z,15.43
2023-04-16T15:07:11.766Z,15.65
2023-04-16T15:09:39.129Z,15.45
2023-04-16T15:12:06.057Z,15.48
2023-04-16T15:14:32.987Z,15.78
2023-04-16T15:16:59.937Z,15.44
2023-04-16T15:19:26.942Z,15.79
2023-04-16T15:21:53.894Z,15.75
2023-04-16T15:24:21.274Z,15.65
2023-04-16T15:26:48.411Z,15.47
2023-04-16T15:29:15.891Z,15.13
2023-04-16T15:31:42.825Z,14.93
2023-04-16T15:34:09.884Z,14.80
2023-04-16T15:36:36.999Z,15.36
2023-04-16T15:39:04.210Z,14.99
2023-04-16T15:41:32.060Z,14.97
2023-04-16T15:43:58.947Z,15.11
2023-04-16T15:46:25.904Z,14.93
2023-04-16T15:48:52.818Z,14.65
2023-04-16T15:51:19.668Z,14.49
2023-04-16T15:53:46.965Z,14.18
2023-04-16T15:56:13.859Z,14.08
2023-04-16T15:58:40.736Z,13.99
2023-04-16T16:01:09.139Z,13.78
2023-04-16T16:03:36.565Z,13.62
2023-04-16T16:06:08.613Z,13.73
2023-04-16T16:08:36.209Z,14.03
2023-04-16T16:11:03.194Z,14.15
2023-04-16T16:13:30.313Z,14.33
2023-04-16T16:15:57.188Z,14.11
2023-04-16T16:18:24.197Z,13.91
2023-04-16T16:20:53.037Z,13.66
2023-04-16T16:23:20.001Z,13.49
2023-04-16T16:25:47.006Z,13.32
2023-04-16T16:28:13.878Z,13.12
2023-04-16T16:30:40.939Z,12.78
2023-04-16T16:33:07.906Z,12.56
2023-04-16T16:35:34.807Z,12.45
2023-04-16T16:38:02.039Z,12.06
2023-04-16T16:40:28.961Z,12.05
2023-04-16T16:42:55.971Z,12.10
2023-04-16T16:45:23.048Z,12.02
2023-04-16T16:47:50.017Z,12.02
2023-04-16T16:50:17.015Z,12.05
2023-04-16T16:52:44.645Z,11.88
2023-04-16T16:55:11.538Z,11.75
2023-04-16T16:57:38.930Z,11.78
2023-04-16T17:00:14.309Z,11.71
2023-04-16T17:02:41.589Z,11.64
2023-04-16T17:05:08.831Z,11.59
2023-04-16T17:07:36.482Z,11.64
2023-04-16T17:10:06.127Z,11.65
2023-04-16T17:12:33.721Z,11.48
2023-04-16T17:15:00.679Z,11.32
2023-04-16T17:17:28.454Z,11.36
2023-04-16T17:19:55.452Z,11.48
2023-04-16T17:22:22.282Z,11.37
2023-04-16T17:24:49.154Z,11.38
2023-04-16T17:27:16.116Z,11.36
2023-04-16T17:29:43.005Z,11.41
2023-04-16T17:32:10.019Z,11.48
2023-04-16T17:34:36.966Z,11.42
2023-04-16T17:37:03.853Z,11.35
2023-04-16T17:39:31.265Z,11.43
2023-04-16T17:42:01.268Z,11.36
2023-04-16T17:44:28.185Z,11.42
2023-04-16T17:46:55.022Z,11.38
2023-04-16T17:49:21.972Z,11.28
2023-04-16T17:51:49.263Z,11.45
2023-04-16T17:54:16.167Z,11.43
2023-04-16T17:56:43.104Z,11.54
2023-04-16T17:59:10.115Z,11.82
2023-04-16T18:01:37.006Z,12.26
2023-04-16T18:04:04.058Z,12.49
2023-04-16T18:06:31.128Z,12.61
2023-04-16T18:08:58.044Z,12.40
2023-04-16T18:11:24.953Z,12.59
2023-04-16T18:13:54.023Z,12.92
2023-04-16T18:16:22.648Z,12.95
2023-04-16T18:18:49.665Z,12.62
2023-04-16T18:21:16.666Z,12.32
2023-04-16T18:23:43.596Z,11.96
2023-04-16T18:26:11.265Z,11.64
2023-04-16T18:28:39.186Z,11.68
2023-04-16T18:31:07.944Z,11.70
2023-04-16T18:33:54.157Z,11.96
2023-04-16T18:36:21.899Z,12.05
2023-04-16T18:39:00.228Z,12.50
2023-04-16T18:41:29.315Z,12.95
2023-04-16T18:43:56.387Z,12.84
2023-04-16T18:46:23.543Z,12.73
2023-04-16T18:48:50.530Z,12.82
2023-04-16T18:51:17.389Z,12.75
2023-04-16T18:53:45.799Z,12.93
2023-04-16T18:56:13.162Z,13.08
2023-04-16T18:58:40.073Z,13.11
2023-04-16T19:01:11.315Z,13.17
2023-04-16T19:03:38.949Z,13.01
2023-04-16T19:06:06.238Z,13.47
2023-04-16T19:08:33.212Z,13.54
2023-04-16T19:11:00.144Z,13.21
2023-04-16T19:13:27.097Z,13.42
2023-04-16T19:16:01.140Z,13.38
2023-04-16T19:18:28.178Z,12.31
2023-04-16T19:21:01.450Z,12.43
2023-04-16T19:23:28.820Z,12.49
2023-04-16T19:25:58.834Z,12.79
2023-04-16T19:28:25.837Z,13.17
2023-04-16T19:30:53.246Z,13.28
2023-04-16T19:33:20.192Z,13.31
2023-04-16T19:35:47.449Z,13.19
2023-04-16T19:38:14.608Z,12.99
2023-04-16T19:40:44.023Z,12.95
2023-04-16T19:43:10.930Z,12.97
2023-04-16T19:45:42.682Z,13.23
2023-04-16T19:48:09.800Z,13.04
2023-04-16T19:50:38.788Z,13.17
2023-04-16T19:53:05.763Z,12.85
2023-04-16T19:55:32.628Z,12.94
2023-04-16T19:58:05.729Z,12.36
2023-04-16T20:00:33.275Z,12.76
2023-04-16T20:03:00.278Z,13.10
2023-04-16T20:05:27.448Z,13.34
2023-04-16T20:07:54.713Z,13.14
2023-04-16T20:10:21.985Z,12.68
2023-04-16T20:12:49.214Z,12.45
2023-04-16T20:15:16.191Z,12.31
2023-04-16T20:17:43.065Z,12.42
2023-04-16T20:20:11.230Z,12.53
2023-04-16T20:22:38.469Z,12.29
2023-04-16T20:25:06.087Z,12.36
2023-04-16T20:27:33.468Z,12.49
2023-04-16T20:30:01.437Z,12.51
2023-04-16T20:32:28.541Z,12.69
2023-04-16T20:34:55.793Z,12.78
2023-04-16T20:37:22.710Z,12.36
2023-04-16T20:39:50.310Z,12.48
2023-04-16T20:42:18.184Z,12.52
2023-04-16T20:44:50.607Z,12.53
2023-04-16T20:47:17.597Z,12.18
2023-04-16T20:49:47.498Z,12.31
2023-04-16T20:52:14.854Z,12.27
2023-04-16T20:54:41.767Z,12.48
2023-04-16T20:57:08.608Z,12.79
2023-04-16T20:59:37.074Z,12.08
2023-04-16T21:02:04.038Z,12.71
2023-04-16T21:04:31.255Z,12.85
2023-04-16T21:06:58.267Z,13.10
2023-04-16T21:09:25.269Z,13.44
2023-04-16T21:11:52.128Z,13.21
2023-04-16T21:14:19.063Z,13.50
2023-04-16T21:16:46.022Z,13.61
2023-04-16T21:19:13.247Z,13.24
2023-04-16T21:21:40.378Z,13.25
2023-04-16T21:24:07.388Z,13.36
2023-04-16T21:26:34.322Z,13.31
2023-04-16T21:29:01.218Z,13.52
2023-04-16T21:31:28.277Z,13.14
2023-04-16T21:33:55.277Z,12.88
2023-04-16T21:36:22.541Z,13.10
2023-04-16T21:38:49.438Z,12.84
2023-04-16T21:41:16.717Z,12.43
2023-04-16T21:43:43.712Z,12.61
2023-04-16T21:46:11.048Z,12.25
2023-04-16T21:48:37.968Z,12.21
2023-04-16T21:51:08.306Z,12.39
2023-04-16T21:53:35.516Z,12.56
2023-04-16T21:56:02.484Z,12.89
2023-04-16T21:58:29.607Z,12.89
2023-04-16T22:00:56.530Z,13.21
2023-04-16T22:03:27.780Z,13.52
2023-04-16T22:06:01.182Z,13.58
2023-04-16T22:08:29.189Z,13.68
2023-04-16T22:10:56.669Z,13.57
2023-04-16T22:13:25.245Z,13.66
2023-04-16T22:15:52.713Z,13.81
2023-04-16T22:18:19.697Z,13.97
2023-04-16T22:20:47.480Z,13.91
2023-04-16T22:23:14.531Z,13.64
2023-04-16T22:25:41.483Z,13.42
2023-04-16T22:28:08.431Z,13.33
2023-04-16T22:30:35.383Z,13.44
2023-04-16T22:33:03.868Z,13.09
2023-04-16T22:35:30.897Z,13.15
2023-04-16T22:37:57.854Z,13.53
2023-04-16T22:40:26.298Z,13.49
2023-04-16T22:42:53.288Z,13.85
2023-04-16T22:45:20.277Z,14.01
2023-04-16T22:47:47.255Z,14.00
2023-04-16T22:50:15.071Z,13.91
2023-04-16T22:52:42.043Z,13.83
2023-04-16T22:55:09.224Z,13.63
2023-04-16T22:57:36.357Z,13.87
2023-04-16T23:00:06.355Z,13.72
2023-04-16T23:02:33.466Z,13.82
2023-04-16T23:05:00.940Z,13.64
2023-04-16T23:07:27.880Z,13.67
2023-04-16T23:09:54.740Z,13.76
2023-04-16T23:12:21.654Z,13.78
2023-04-16T23:14:48.757Z,13.47
2023-04-16T23:17:15.646Z,13.67
2023-04-16T23:19:42.562Z,13.69
2023-04-16T23:22:10.127Z,13.78
2023-04-16T23:24:37.199Z,13.74
2023-04-16T23:27:04.225Z,13.68
2023-04-16T23:29:31.905Z,13.70
2023-04-16T23:31:58.961Z,13.60
2023-04-16T23:34:26.138Z,13.26
2023-04-16T23:36:53.089Z,13.54
2023-04-16T23:39:20.053Z,13.23
2023-04-16T23:41:46.972Z,12.48
2023-04-16T23:44:13.894Z,12.08
2023-04-16T23:46:41.113Z,11.72
2023-04-16T23:49:08.240Z,12.34
2023-04-16T23:51:35.218Z,12.63
2023-04-16T23:54:02.305Z,12.89
2023-04-16T23:56:29.256Z,13.05
2023-04-16T23:58:56.321Z,13.17
